sensor_id;sensor_type;location;lat;lon;timestamp;pressure;altitude;pressure_sealevel;temperature;humidity
21129;BME280;10722;51.910;8.352;2023-02-20T00:00:35;101751.38;;;5.46;100.00
21129;BME280;10722;51.910;8.352;2023-02-20T00:03:21;101747.50;;;5.52;100.00
21129;BME280;10722;51.910;8.352;2023-02-20T00:06:07;101754.22;;;5.50;100.00
21129;BME280;10722;51.910;8.352;2023-02-20T00:08:52;101742.34;;;5.52;100.00
21129;BME280;10722;51.910;8.352;2023-02-20T00:11:37;101752.47;;;5.49;100.00
21129;BME280;10722;51.910;8.352;2023-02-20T00:14:22;101742.41;;;5.54;100.00
21129;BME280;10722;51.910;8.352;2023-02-20T00:17:07;101740.50;;;5.50;100.00
21129;BME280;10722;51.910;8.352;2023-02-20T00:19:53;101748.38;;;5.53;100.00
21129;BME280;10722;51.910;8.352;2023-02-20T00:22:38;101730.69;;;5.43;100.00
21129;BME280;10722;51.910;8.352;2023-02-20T00:25:23;101733.34;;;5.44;100.00
21129;BME280;10722;51.910;8.352;2023-02-20T00:28:09;101734.22;;;5.45;100.00
21129;BME280;10722;51.910;8.352;2023-02-20T00:30:55;101735.03;;;5.44;100.00
21129;BME280;10722;51.910;8.352;2023-02-20T00:33:41;101727.06;;;5.39;100.00
21129;BME280;10722;51.910;8.352;2023-02-20T00:36:26;101721.69;;;5.34;100.00
21129;BME280;10722;51.910;8.352;2023-02-20T00:39:12;101718.72;;;5.43;100.00
21129;BME280;10722;51.910;8.352;2023-02-20T00:41:57;101707.16;;;5.35;100.00
21129;BME280;10722;51.910;8.352;2023-02-20T00:44:43;101701.81;;;5.30;100.00
21129;BME280;10722;51.910;8.352;2023-02-20T00:47:28;101700.94;;;5.30;100.00
21129;BME280;10722;51.910;8.352;2023-02-20T00:50:15;101695.84;;;5.31;100.00
21129;BME280;10722;51.910;8.352;2023-02-20T00:53:00;101693.84;;;5.26;100.00
21129;BME280;10722;51.910;8.352;2023-02-20T00:55:46;101699.06;;;5.27;100.00
21129;BME280;10722;51.910;8.352;2023-02-20T00:58:31;101696.56;;;5.29;100.00
21129;BME280;10722;51.910;8.352;2023-02-20T01:01:16;101682.00;;;5.28;100.00
21129;BME280;10722;51.910;8.352;2023-02-20T01:04:02;101677.56;;;5.25;100.00
21129;BME280;10722;51.910;8.352;2023-02-20T01:06:47;101673.88;;;5.20;100.00
21129;BME280;10722;51.910;8.352;2023-02-20T01:09:32;101667.03;;;5.21;100.00
21129;BME280;10722;51.910;8.352;2023-02-20T01:12:17;101672.00;;;5.17;100.00
21129;BME280;10722;51.910;8.352;2023-02-20T01:15:04;101665.84;;;5.14;100.00
21129;BME280;10722;51.910;8.352;2023-02-20T01:17:50;101672.56;;;5.12;100.00
21129;BME280;10722;51.910;8.352;2023-02-20T01:20:35;101667.59;;;5.15;100.00
21129;BME280;10722;51.910;8.352;2023-02-20T01:23:21;101654.78;;;5.15;100.00
21129;BME280;10722;51.910;8.352;2023-02-20T01:26:06;101670.91;;;5.12;100.00
21129;BME280;10722;51.910;8.352;2023-02-20T01:28:51;101669.22;;;5.13;100.00
21129;BME280;10722;51.910;8.352;2023-02-20T01:31:36;101663.00;;;5.09;100.00
21129;BME280;10722;51.910;8.352;2023-02-20T01:34:21;101665.69;;;5.11;100.00
21129;BME280;10722;51.910;8.352;2023-02-20T01:37:11;101672.06;;;5.03;100.00
21129;BME280;10722;51.910;8.352;2023-02-20T01:39:57;101658.28;;;5.01;100.00
21129;BME280;10722;51.910;8.352;2023-02-20T01:42:42;101646.81;;;4.94;100.00
21129;BME280;10722;51.910;8.352;2023-02-20T01:45:36;101639.81;;;4.91;100.00
21129;BME280;10722;51.910;8.352;2023-02-20T01:48:23;101638.94;;;4.91;100.00
21129;BME280;10722;51.910;8.352;2023-02-20T01:51:09;101633.72;;;4.89;100.00
21129;BME280;10722;51.910;8.352;2023-02-20T01:53:55;101614.00;;;4.88;100.00
21129;BME280;10722;51.910;8.352;2023-02-20T01:56:40;101623.47;;;4.89;100.00
21129;BME280;10722;51.910;8.352;2023-02-20T01:59:29;101613.47;;;4.94;100.00
21129;BME280;10722;51.910;8.352;2023-02-20T02:02:15;101613.72;;;4.99;100.00
21129;BME280;10722;51.910;8.352;2023-02-20T02:05:01;101608.75;;;5.02;100.00
21129;BME280;10722;51.910;8.352;2023-02-20T02:07:46;101605.31;;;5.01;100.00
21129;BME280;10722;51.910;8.352;2023-02-20T02:10:39;101602.09;;;5.05;100.00
21129;BME280;10722;51.910;8.352;2023-02-20T02:13:31;101624.38;;;5.06;100.00
21129;BME280;10722;51.910;8.352;2023-02-20T02:19:39;101602.97;;;5.06;100.00
21129;BME280;10722;51.910;8.352;2023-02-20T02:28:55;101593.75;;;5.09;100.00
21129;BME280;10722;51.910;8.352;2023-02-20T02:38:16;101560.66;;;5.14;100.00
21129;BME280;10722;51.910;8.352;2023-02-20T02:41:26;101565.19;;;5.18;100.00
21129;BME280;10722;51.910;8.352;2023-02-20T02:47:06;101556.09;;;5.25;100.00
21129;BME280;10722;51.910;8.352;2023-02-20T02:50:07;101542.63;;;5.29;100.00
21129;BME280;10722;51.910;8.352;2023-02-20T02:52:54;101541.03;;;5.31;100.00
21129;BME280;10722;51.910;8.352;2023-02-20T02:55:40;101512.34;;;5.38;100.00
21129;BME280;10722;51.910;8.352;2023-02-20T02:58:26;101510.84;;;5.43;100.00
21129;BME280;10722;51.910;8.352;2023-02-20T03:01:11;101521.38;;;5.48;100.00
21129;BME280;10722;51.910;8.352;2023-02-20T03:03:57;101506.22;;;5.52;100.00
21129;BME280;10722;51.910;8.352;2023-02-20T03:06:45;101490.22;;;5.58;100.00
21129;BME280;10722;51.910;8.352;2023-02-20T03:09:38;101505.78;;;5.61;100.00
21129;BME280;10722;51.910;8.352;2023-02-20T03:12:26;101489.72;;;5.65;100.00
21129;BME280;10722;51.910;8.352;2023-02-20T03:15:27;101483.72;;;5.65;100.00
21129;BME280;10722;51.910;8.352;2023-02-20T03:18:22;101495.53;;;5.79;100.00
21129;BME280;10722;51.910;8.352;2023-02-20T03:21:14;101487.59;;;5.74;100.00
21129;BME280;10722;51.910;8.352;2023-02-20T03:24:01;101490.00;;;5.71;100.00
21129;BME280;10722;51.910;8.352;2023-02-20T03:26:49;101479.25;;;5.60;100.00
21129;BME280;10722;51.910;8.352;2023-02-20T03:29:37;101483.47;;;5.60;100.00
21129;BME280;10722;51.910;8.352;2023-02-20T03:32:26;101478.47;;;5.63;100.00
21129;BME280;10722;51.910;8.352;2023-02-20T03:35:12;101476.66;;;5.60;100.00
21129;BME280;10722;51.910;8.352;2023-02-20T03:38:01;101478.34;;;5.60;100.00
21129;BME280;10722;51.910;8.352;2023-02-20T03:40:49;101477.16;;;5.53;100.00
21129;BME280;10722;51.910;8.352;2023-02-20T03:43:37;101466.66;;;5.49;100.00
21129;BME280;10722;51.910;8.352;2023-02-20T03:46:24;101490.09;;;5.55;100.00
21129;BME280;10722;51.910;8.352;2023-02-20T03:49:12;101482.88;;;5.48;100.00
21129;BME280;10722;51.910;8.352;2023-02-20T03:51:58;101488.16;;;5.51;100.00
21129;BME280;10722;51.910;8.352;2023-02-20T03:54:43;101479.47;;;5.49;100.00
21129;BME280;10722;51.910;8.352;2023-02-20T03:57:33;101482.88;;;5.48;100.00
21129;BME280;10722;51.910;8.352;2023-02-20T04:00:24;101476.19;;;5.51;100.00
21129;BME280;10722;51.910;8.352;2023-02-20T04:03:17;101494.41;;;5.56;100.00
21129;BME280;10722;51.910;8.352;2023-02-20T04:06:06;101485.81;;;5.55;100.00
21129;BME280;10722;51.910;8.352;2023-02-20T04:09:08;101473.78;;;5.54;100.00
21129;BME280;10722;51.910;8.352;2023-02-20T04:11:59;101473.19;;;5.60;100.00
21129;BME280;10722;51.910;8.352;2023-02-20T04:14:48;101465.44;;;5.58;100.00
21129;BME280;10722;51.910;8.352;2023-02-20T04:17:59;101460.94;;;5.54;100.00
21129;BME280;10722;51.910;8.352;2023-02-20T04:20:49;101468.00;;;5.58;100.00
21129;BME280;10722;51.910;8.352;2023-02-20T04:23:39;101467.19;;;5.59;100.00
21129;BME280;10722;51.910;8.352;2023-02-20T04:26:27;101455.31;;;5.61;100.00
21129;BME280;10722;51.910;8.352;2023-02-20T04:29:12;101460.16;;;5.73;100.00
21129;BME280;10722;51.910;8.352;2023-02-20T04:31:58;101444.72;;;5.72;100.00
21129;BME280;10722;51.910;8.352;2023-02-20T04:34:43;101432.59;;;5.69;100.00
21129;BME280;10722;51.910;8.352;2023-02-20T04:37:29;101412.50;;;5.78;100.00
21129;BME280;10722;51.910;8.352;2023-02-20T04:40:16;101414.19;;;5.78;100.00
21129;BME280;10722;51.910;8.352;2023-02-20T04:43:01;101399.66;;;5.78;100.00
21129;BME280;10722;51.910;8.352;2023-02-20T04:45:47;101403.47;;;5.87;100.00
21129;BME280;10722;51.910;8.352;2023-02-20T04:48:32;101396.88;;;5.92;100.00
21129;BME280;10722;51.910;8.352;2023-02-20T04:51:17;101393.34;;;5.90;100.00
21129;BME280;10722;51.910;8.352;2023-02-20T04:54:03;101396.94;;;5.93;100.00
21129;BME280;10722;51.910;8.352;2023-02-20T04:56:49;101395.97;;;5.91;100.00
21129;BME280;10722;51.910;8.352;2023-02-20T04:59:34;101384.63;;;5.86;100.00
21129;BME280;10722;51.910;8.352;2023-02-20T05:02:19;101389.03;;;5.89;100.00
21129;BME280;10722;51.910;8.352;2023-02-20T05:05:06;101381.97;;;5.84;100.00
21129;BME280;10722;51.910;8.352;2023-02-20T05:08:00;101369.06;;;5.83;100.00
21129;BME280;10722;51.910;8.352;2023-02-20T05:10:46;101369.84;;;5.82;100.00
21129;BME280;10722;51.910;8.352;2023-02-20T05:13:31;101354.53;;;5.83;100.00
21129;BME280;10722;51.910;8.352;2023-02-20T05:16:16;101355.28;;;5.81;100.00
21129;BME280;10722;51.910;8.352;2023-02-20T05:19:02;101351.22;;;5.86;100.00
21129;BME280;10722;51.910;8.352;2023-02-20T05:21:47;101359.81;;;5.87;100.00
21129;BME280;10722;51.910;8.352;2023-02-20T05:24:32;101349.53;;;5.87;100.00
21129;BME280;10722;51.910;8.352;2023-02-20T05:27:19;101350.19;;;5.82;100.00
21129;BME280;10722;51.910;8.352;2023-02-20T05:30:06;101362.38;;;5.87;100.00
21129;BME280;10722;51.910;8.352;2023-02-20T05:32:51;101360.69;;;5.87;100.00
21129;BME280;10722;51.910;8.352;2023-02-20T05:35:36;101364.88;;;5.85;100.00
21129;BME280;10722;51.910;8.352;2023-02-20T05:38:22;101360.31;;;5.79;100.00
21129;BME280;10722;51.910;8.352;2023-02-20T05:41:07;101365.59;;;5.82;100.00
21129;BME280;10722;51.910;8.352;2023-02-20T05:43:53;101355.41;;;5.84;100.00
21129;BME280;10722;51.910;8.352;2023-02-20T05:46:39;101334.78;;;5.82;100.00
21129;BME280;10722;51.910;8.352;2023-02-20T05:49:26;101351.00;;;5.81;100.00
21129;BME280;10722;51.910;8.352;2023-02-20T05:52:11;101343.03;;;5.75;100.00
21129;BME280;10722;51.910;8.352;2023-02-20T05:54:56;101349.19;;;5.79;100.00
21129;BME280;10722;51.910;8.352;2023-02-20T05:57:42;101350.88;;;5.78;100.00
21129;BME280;10722;51.910;8.352;2023-02-20T06:00:27;101340.47;;;5.75;100.00
21129;BME280;10722;51.910;8.352;2023-02-20T06:03:14;101345.50;;;5.74;100.00
21129;BME280;10722;51.910;8.352;2023-02-20T06:05:59;101342.94;;;5.74;100.00
21129;BME280;10722;51.910;8.352;2023-02-20T06:08:45;101348.03;;;5.72;100.00
21129;BME280;10722;51.910;8.352;2023-02-20T06:11:30;101341.78;;;5.67;100.00
21129;BME280;10722;51.910;8.352;2023-02-20T06:14:17;101331.50;;;5.67;100.00
21129;BME280;10722;51.910;8.352;2023-02-20T06:17:05;101338.53;;;5.71;100.00
21129;BME280;10722;51.910;8.352;2023-02-20T06:19:50;101347.56;;;5.63;100.00
21129;BME280;10722;51.910;8.352;2023-02-20T06:22:36;101343.34;;;5.64;100.00
21129;BME280;10722;51.910;8.352;2023-02-20T06:25:21;101350.94;;;5.62;100.00
21129;BME280;10722;51.910;8.352;2023-02-20T06:28:06;101362.91;;;5.61;100.00
21129;BME280;10722;51.910;8.352;2023-02-20T06:30:52;101343.84;;;5.56;100.00
21129;BME280;10722;51.910;8.352;2023-02-20T06:33:37;101348.16;;;5.57;100.00
21129;BME280;10722;51.910;8.352;2023-02-20T06:36:26;101351.63;;;5.58;100.00
21129;BME280;10722;51.910;8.352;2023-02-20T06:39:12;101359.22;;;5.56;100.00
21129;BME280;10722;51.910;8.352;2023-02-20T06:41:57;101377.50;;;5.62;100.00
21129;BME280;10722;51.910;8.352;2023-02-20T06:44:43;101380.16;;;5.64;100.00
21129;BME280;10722;51.910;8.352;2023-02-20T06:47:28;101381.25;;;5.69;100.00
21129;BME280;10722;51.910;8.352;2023-02-20T06:50:13;101389.09;;;5.72;100.00
21129;BME280;10722;51.910;8.352;2023-02-20T06:52:59;101389.88;;;5.71;100.00
21129;BME280;10722;51.910;8.352;2023-02-20T06:55:44;101395.16;;;5.74;100.00
21129;BME280;10722;51.910;8.352;2023-02-20T06:58:29;101399.56;;;5.77;100.00
21129;BME280;10722;51.910;8.352;2023-02-20T07:01:16;101390.03;;;5.74;100.00
21129;BME280;10722;51.910;8.352;2023-02-20T07:04:01;101399.13;;;5.68;100.00
21129;BME280;10722;51.910;8.352;2023-02-20T07:06:47;101394.22;;;5.72;100.00
21129;BME280;10722;51.910;8.352;2023-02-20T07:09:32;101417.09;;;5.68;100.00
21129;BME280;10722;51.910;8.352;2023-02-20T07:12:17;101398.13;;;5.64;100.00
21129;BME280;10722;51.910;8.352;2023-02-20T07:15:04;101400.59;;;5.62;100.00
21129;BME280;10722;51.910;8.352;2023-02-20T07:17:50;101402.28;;;5.62;100.00
21129;BME280;10722;51.910;8.352;2023-02-20T07:20:35;101385.19;;;5.62;100.00
21129;BME280;10722;51.910;8.352;2023-02-20T07:23:21;101385.19;;;5.62;100.00
21129;BME280;10722;51.910;8.352;2023-02-20T07:26:06;101377.28;;;5.58;100.00
21129;BME280;10722;51.910;8.352;2023-02-20T07:28:53;101388.50;;;5.60;100.00
21129;BME280;10722;51.910;8.352;2023-02-20T07:31:39;101388.34;;;5.57;100.00
21129;BME280;10722;51.910;8.352;2023-02-20T07:34:24;101401.03;;;5.54;100.00
21129;BME280;10722;51.910;8.352;2023-02-20T07:37:10;101398.47;;;5.54;100.00
21129;BME280;10722;51.910;8.352;2023-02-20T07:39:55;101402.81;;;5.55;100.00
21129;BME280;10722;51.910;8.352;2023-02-20T07:42:40;101384.66;;;5.52;100.00
21129;BME280;10722;51.910;8.352;2023-02-20T07:45:26;101406.25;;;5.55;100.00
21129;BME280;10722;51.910;8.352;2023-02-20T07:48:11;101394.78;;;5.49;100.00
21129;BME280;10722;51.910;8.352;2023-02-20T07:50:57;101403.44;;;5.51;100.00
21129;BME280;10722;51.910;8.352;2023-02-20T07:53:50;101400.31;;;5.56;100.00
21129;BME280;10722;51.910;8.352;2023-02-20T07:56:35;101400.88;;;5.51;100.00
21129;BME280;10722;51.910;8.352;2023-02-20T07:59:21;101425.72;;;5.52;100.00
21129;BME280;10722;51.910;8.352;2023-02-20T08:02:06;101405.19;;;5.52;100.00
21129;BME280;10722;51.910;8.352;2023-02-20T08:04:52;101409.84;;;5.59;100.00
21129;BME280;10722;51.910;8.352;2023-02-20T08:07:37;101416.28;;;5.51;100.00
21129;BME280;10722;51.910;8.352;2023-02-20T08:10:25;101412.25;;;5.56;100.00
21129;BME280;10722;51.910;8.352;2023-02-20T08:13:11;101417.31;;;5.54;100.00
21129;BME280;10722;51.910;8.352;2023-02-20T08:15:56;101429.13;;;5.51;100.00
21129;BME280;10722;51.910;8.352;2023-02-20T08:18:42;101417.25;;;5.53;100.00
21129;BME280;10722;51.910;8.352;2023-02-20T08:21:27;101412.03;;;5.51;100.00
21129;BME280;10722;51.910;8.352;2023-02-20T08:24:12;101417.09;;;5.50;100.00
21129;BME280;10722;51.910;8.352;2023-02-20T08:26:57;101413.09;;;5.55;100.00
21129;BME280;10722;51.910;8.352;2023-02-20T08:29:44;101414.09;;;5.58;100.00
21129;BME280;10722;51.910;8.352;2023-02-20T08:32:29;101407.28;;;5.59;100.00
21129;BME280;10722;51.910;8.352;2023-02-20T08:35:15;101415.47;;;5.52;100.00
21129;BME280;10722;51.910;8.352;2023-02-20T08:38:05;101404.63;;;5.57;100.00
21129;BME280;10722;51.910;8.352;2023-02-20T08:40:51;101408.97;;;5.58;100.00
21129;BME280;10722;51.910;8.352;2023-02-20T08:43:37;101375.50;;;5.57;100.00
21129;BME280;10722;51.910;8.352;2023-02-20T08:46:23;101385.13;;;5.61;100.00
21129;BME280;10722;51.910;8.352;2023-02-20T08:49:09;101386.97;;;5.64;100.00
21129;BME280;10722;51.910;8.352;2023-02-20T08:51:54;101399.06;;;5.66;100.00
21129;BME280;10722;51.910;8.352;2023-02-20T08:54:44;101386.28;;;5.68;100.00
21129;BME280;10722;51.910;8.352;2023-02-20T08:57:29;101387.84;;;5.64;100.00
21129;BME280;10722;51.910;8.352;2023-02-20T09:00:14;101381.16;;;5.68;100.00
21129;BME280;10722;51.910;8.352;2023-02-20T09:03:00;101383.81;;;5.69;100.00
21129;BME280;10722;51.910;8.352;2023-02-20T09:05:45;101380.53;;;5.72;100.00
21129;BME280;10722;51.910;8.352;2023-02-20T09:08:30;101389.28;;;5.77;100.00
21129;BME280;10722;51.910;8.352;2023-02-20T09:11:16;101373.69;;;5.72;100.00
21129;BME280;10722;51.910;8.352;2023-02-20T09:14:02;101382.56;;;5.79;100.00
21129;BME280;10722;51.910;8.352;2023-02-20T09:16:50;101377.38;;;5.77;100.00
21129;BME280;10722;51.910;8.352;2023-02-20T09:19:36;101379.03;;;5.77;100.00
21129;BME280;10722;51.910;8.352;2023-02-20T09:22:22;101373.88;;;5.77;100.00
21129;BME280;10722;51.910;8.352;2023-02-20T09:25:09;101392.91;;;5.80;100.00
21129;BME280;10722;51.910;8.352;2023-02-20T09:27:55;101369.72;;;5.79;100.00
21129;BME280;10722;51.910;8.352;2023-02-20T09:30:40;101373.31;;;5.82;100.00
21129;BME280;10722;51.910;8.352;2023-02-20T09:33:28;101358.72;;;5.81;100.00
21129;BME280;10722;51.910;8.352;2023-02-20T09:36:13;101364.81;;;5.83;100.00
21129;BME280;10722;51.910;8.352;2023-02-20T09:38:59;101360.78;;;5.89;100.00
21129;BME280;10722;51.910;8.352;2023-02-20T09:41:52;101355.25;;;5.99;100.00
21129;BME280;10722;51.910;8.352;2023-02-20T09:47:55;101344.81;;;5.94;100.00
21129;BME280;10722;51.910;8.352;2023-02-20T09:53:51;101346.78;;;6.00;100.00
21129;BME280;10722;51.910;8.352;2023-02-20T09:56:49;101347.56;;;5.99;100.00
21129;BME280;10722;51.910;8.352;2023-02-20T09:59:57;101351.38;;;6.07;100.00
21129;BME280;10722;51.910;8.352;2023-02-20T10:03:02;101330.94;;;6.10;100.00
21129;BME280;10722;51.910;8.352;2023-02-20T10:05:50;101334.53;;;6.14;100.00
21129;BME280;10722;51.910;8.352;2023-02-20T10:08:35;101326.06;;;6.16;100.00
21129;BME280;10722;51.910;8.352;2023-02-20T10:11:27;101325.47;;;6.22;100.00
21129;BME280;10722;51.910;8.352;2023-02-20T10:20:18;101331.91;;;6.32;100.00
21129;BME280;10722;51.910;8.352;2023-02-20T10:26:11;101317.28;;;6.50;100.00
21129;BME280;10722;51.910;8.352;2023-02-20T10:29:13;101332.59;;;6.47;100.00
21129;BME280;10722;51.910;8.352;2023-02-20T10:32:07;101342.94;;;6.48;100.00
21129;BME280;10722;51.910;8.352;2023-02-20T10:35:02;101326.91;;;6.54;100.00
21129;BME280;10722;51.910;8.352;2023-02-20T10:37:52;101327.69;;;6.53;100.00
21129;BME280;10722;51.910;8.352;2023-02-20T10:40:52;101325.75;;;6.47;100.00
21129;BME280;10722;51.910;8.352;2023-02-20T10:44:00;101316.25;;;6.45;100.00
21129;BME280;10722;51.910;8.352;2023-02-20T10:46:57;101314.72;;;6.50;100.00
21129;BME280;10722;51.910;8.352;2023-02-20T10:49:55;101323.38;;;6.52;100.00
21129;BME280;10722;51.910;8.352;2023-02-20T10:52:49;101333.28;;;6.43;100.00
21129;BME280;10722;51.910;8.352;2023-02-20T10:55:46;101338.53;;;6.46;100.00
21129;BME280;10722;51.910;8.352;2023-02-20T10:58:47;101337.84;;;6.50;100.00
21129;BME280;10722;51.910;8.352;2023-02-20T11:01:35;101338.69;;;6.49;100.00
21129;BME280;10722;51.910;8.352;2023-02-20T11:04:49;101359.09;;;6.46;100.00
21129;BME280;10722;51.910;8.352;2023-02-20T11:07:36;101351.31;;;6.44;100.00
21129;BME280;10722;51.910;8.352;2023-02-20T11:10:21;101338.69;;;6.49;100.00
21129;BME280;10722;51.910;8.352;2023-02-20T11:13:14;101350.66;;;6.48;100.00
21129;BME280;10722;51.910;8.352;2023-02-20T11:16:00;101340.97;;;6.43;100.00
21129;BME280;10722;51.910;8.352;2023-02-20T11:18:46;101338.59;;;6.47;100.00
21129;BME280;10722;51.910;8.352;2023-02-20T11:21:39;101324.22;;;6.51;100.00
21129;BME280;10722;51.910;8.352;2023-02-20T11:27:18;101330.44;;;6.56;100.00
21129;BME280;10722;51.910;8.352;2023-02-20T11:36:14;101304.66;;;6.55;100.00
21129;BME280;10722;51.910;8.352;2023-02-20T11:39:23;101331.31;;;6.57;100.00
21129;BME280;10722;51.910;8.352;2023-02-20T11:42:13;101339.94;;;6.59;100.00
21129;BME280;10722;51.910;8.352;2023-02-20T11:45:23;101331.56;;;6.63;100.00
21129;BME280;10722;51.910;8.352;2023-02-20T11:48:10;101328.91;;;6.61;100.00
21129;BME280;10722;51.910;8.352;2023-02-20T11:50:56;101314.56;;;6.66;100.00
21129;BME280;10722;51.910;8.352;2023-02-20T11:53:41;101324.13;;;6.69;100.00
21129;BME280;10722;51.910;8.352;2023-02-20T11:56:27;101325.13;;;6.72;100.00
21129;BME280;10722;51.910;8.352;2023-02-20T11:59:26;101317.41;;;6.72;100.00
21129;BME280;10722;51.910;8.352;2023-02-20T12:02:21;101295.34;;;6.78;100.00
21129;BME280;10722;51.910;8.352;2023-02-20T12:05:12;101291.88;;;6.77;100.00
21129;BME280;10722;51.910;8.352;2023-02-20T12:07:58;101289.53;;;6.82;100.00
21129;BME280;10722;51.910;8.352;2023-02-20T12:10:45;101265.75;;;6.87;100.00
21129;BME280;10722;51.910;8.352;2023-02-20T12:13:43;101298.28;;;6.87;100.00
21129;BME280;10722;51.910;8.352;2023-02-20T12:31:25;101234.97;;;7.11;100.00
21129;BME280;10722;51.910;8.352;2023-02-20T12:40:18;101266.03;;;7.16;100.00
21129;BME280;10722;51.910;8.352;2023-02-20T12:46:22;101254.69;;;7.11;100.00
21129;BME280;10722;51.910;8.352;2023-02-20T13:01:52;101278.28;;;7.22;100.00
21129;BME280;10722;51.910;8.352;2023-02-20T13:04:44;101259.44;;;7.23;100.00
21129;BME280;10722;51.910;8.352;2023-02-20T13:07:39;101274.00;;;7.22;100.00
21129;BME280;10722;51.910;8.352;2023-02-20T13:10:45;101266.34;;;7.24;100.00
21129;BME280;10722;51.910;8.352;2023-02-20T13:16:54;101269.72;;;7.23;100.00
21129;BME280;10722;51.910;8.352;2023-02-20T13:20:08;101256.06;;;7.24;100.00
21129;BME280;10722;51.910;8.352;2023-02-20T13:22:59;101262.13;;;7.26;100.00
21129;BME280;10722;51.910;8.352;2023-02-20T13:25:45;101244.00;;;7.23;100.00
21129;BME280;10722;51.910;8.352;2023-02-20T13:28:36;101250.00;;;7.23;100.00
21129;BME280;10722;51.910;8.352;2023-02-20T13:43:25;101220.25;;;7.30;100.00
21129;BME280;10722;51.910;8.352;2023-02-20T13:46:12;101234.94;;;7.32;100.00
21129;BME280;10722;51.910;8.352;2023-02-20T13:48:59;101217.56;;;7.27;100.00
21129;BME280;10722;51.910;8.352;2023-02-20T13:51:44;101228.00;;;7.30;100.00
21129;BME280;10722;51.910;8.352;2023-02-20T13:54:30;101242.47;;;7.28;100.00
21129;BME280;10722;51.910;8.352;2023-02-20T13:57:18;101229.69;;;7.29;100.00
21129;BME280;10722;51.910;8.352;2023-02-20T14:00:20;101228.78;;;7.29;100.00
21129;BME280;10722;51.910;8.352;2023-02-20T14:03:18;101205.72;;;7.32;100.00
21129;BME280;10722;51.910;8.352;2023-02-20T14:06:16;101221.19;;;7.32;100.00
21129;BME280;10722;51.910;8.352;2023-02-20T14:09:07;101217.84;;;7.34;100.00
21129;BME280;10722;51.910;8.352;2023-02-20T14:11:54;101213.66;;;7.36;100.00
21129;BME280;10722;51.910;8.352;2023-02-20T14:14:46;101213.59;;;7.35;100.00
21129;BME280;10722;51.910;8.352;2023-02-20T14:17:33;101214.50;;;7.37;100.00
21129;BME280;10722;51.910;8.352;2023-02-20T14:20:23;101193.13;;;7.38;100.00
21129;BME280;10722;51.910;8.352;2023-02-20T14:23:18;101190.44;;;7.35;100.00
21129;BME280;10722;51.910;8.352;2023-02-20T14:26:16;101184.56;;;7.39;100.00
21129;BME280;10722;51.910;8.352;2023-02-20T14:29:03;101194.97;;;7.42;100.00
21129;BME280;10722;51.910;8.352;2023-02-20T14:32:03;101200.13;;;7.42;100.00
21129;BME280;10722;51.910;8.352;2023-02-20T14:34:56;101205.16;;;7.39;100.00
21129;BME280;10722;51.910;8.352;2023-02-20T14:40:43;101203.53;;;7.41;100.00
21129;BME280;10722;51.910;8.352;2023-02-20T14:43:29;101204.41;;;7.41;100.00
21129;BME280;10722;51.910;8.352;2023-02-20T14:46:21;101199.94;;;7.37;100.00
21129;BME280;10722;51.910;8.352;2023-02-20T14:49:13;101190.44;;;7.35;100.00
21129;BME280;10722;51.910;8.352;2023-02-20T14:55:01;101184.34;;;7.33;100.00
21129;BME280;10722;51.910;8.352;2023-02-20T14:57:48;101192.94;;;7.33;100.00
21129;BME280;10722;51.910;8.352;2023-02-20T15:00:35;101200.72;;;7.35;100.00
21129;BME280;10722;51.910;8.352;2023-02-20T15:03:25;101213.34;;;7.29;100.00
21129;BME280;10722;51.910;8.352;2023-02-20T15:06:16;101222.00;;;7.31;100.00
21129;BME280;10722;51.910;8.352;2023-02-20T15:09:02;101216.00;;;7.30;100.00
21129;BME280;10722;51.910;8.352;2023-02-20T15:12:06;101206.53;;;7.29;100.00
21129;BME280;10722;51.910;8.352;2023-02-20T15:14:58;101207.28;;;7.27;100.00
21129;BME280;10722;51.910;8.352;2023-02-20T15:17:44;101204.44;;;7.21;100.00
21129;BME280;10722;51.910;8.352;2023-02-20T15:20:36;101204.44;;;7.21;100.00
21129;BME280;10722;51.910;8.352;2023-02-20T15:23:27;101198.44;;;7.20;100.00
21129;BME280;10722;51.910;8.352;2023-02-20T15:26:33;101221.47;;;7.17;100.00
21129;BME280;10722;51.910;8.352;2023-02-20T15:29:26;101216.28;;;7.15;100.00
21129;BME280;10722;51.910;8.352;2023-02-20T15:32:21;101211.06;;;7.14;100.00
21129;BME280;10722;51.910;8.352;2023-02-20T15:35:15;101213.63;;;7.14;100.00
21129;BME280;10722;51.910;8.352;2023-02-20T15:38:05;101211.25;;;7.18;100.00
21129;BME280;10722;51.910;8.352;2023-02-20T15:40:55;101239.44;;;7.15;100.00
21129;BME280;10722;51.910;8.352;2023-02-20T15:43:43;101208.38;;;7.11;100.00
21129;BME280;10722;51.910;8.352;2023-02-20T15:46:36;101204.16;;;7.13;100.00
21129;BME280;10722;51.910;8.352;2023-02-20T15:49:21;101216.09;;;7.11;100.00
21129;BME280;10722;51.910;8.352;2023-02-20T15:52:13;101210.88;;;7.09;100.00
21129;BME280;10722;51.910;8.352;2023-02-20T15:54:59;101215.13;;;7.09;100.00
21129;BME280;10722;51.910;8.352;2023-02-20T15:57:45;101222.69;;;7.04;100.00
21129;BME280;10722;51.910;8.352;2023-02-20T16:00:32;101226.03;;;7.02;100.00
21129;BME280;10722;51.910;8.352;2023-02-20T16:03:17;101220.00;;;7.01;100.00
21129;BME280;10722;51.910;8.352;2023-02-20T16:06:02;101220.81;;;7.00;100.00
21129;BME280;10722;51.910;8.352;2023-02-20T16:08:48;101227.56;;;6.98;100.00
21129;BME280;10722;51.910;8.352;2023-02-20T16:11:43;101221.44;;;6.94;100.00
21129;BME280;10722;51.910;8.352;2023-02-20T16:14:29;101219.69;;;6.93;100.00
21129;BME280;10722;51.910;8.352;2023-02-20T16:17:21;101215.28;;;6.91;100.00
21129;BME280;10722;51.910;8.352;2023-02-20T16:20:16;101226.41;;;6.90;100.00
21129;BME280;10722;51.910;8.352;2023-02-20T16:23:01;101225.50;;;6.89;100.00